• Join FlightAware (Why Join?)
  • Login
  • US Flag 
08:16AM EDT


 

Airport Tracker/Info


-or-


 

Live Flight TrackerFlight Track Log ✈ N102WY ✈ 14-May-2013 ✈ KJAC - KCYS

Flight Track Log - Related Links

Times and Time Zones

All times are in EDT time to prevent confusion due to time zone crossing. See the N102WY flight status page for this flight to view local times or setup timezone preferences in your user account.

Time Position Orientation Groundspeed Altitude Reporting Facility
EDT Latitude Longitude Course Direction KTS MPH feet Rate Location/Type
05:38PM 43.5736 -110.7414 116° Southeast 200 230 7,800  Level Salt Lake Center
05:39PM 43.5444 -110.6661 118° Southeast 239 275 10,800 2,640 Climbing Salt Lake Center
05:40PM 43.5258 -110.5683 105° East 260 299 13,300 2,460 Climbing Salt Lake Center
05:41PM 43.5017 -110.4525 106° East 309 356 15,900 2,580 Climbing Salt Lake Center
05:42PM 43.3432 -110.0534 120° Southeast  Level FlightAware Approximate
05:43PM 43.2971 -109.9420 116° Southeast  Level FlightAware Approximate
05:43PM 43.4769 -110.3322 106° East 327 376 18,700  Level Salt Lake Center
05:44PM 43.2555 -109.8275 116° Southeast  Level FlightAware Approximate
05:44PM 43.4311 -110.1989 115° Southeast 340 391 21,800  Level Salt Lake Center
05:45PM 43.3883 -110.0886 118° Southeast 341 392 23,800 2,040 Climbing Salt Lake Center
05:46PM 43.3339 -109.9503 118° Southeast 366 421 26,100 2,040 Climbing Salt Lake Center
05:47PM 43.2831 -109.8231 119° Southeast 373 429 28,100 1,860 Climbing Salt Lake Center
05:48PM 43.2356 -109.7017 118° Southeast 376 433 30,000 1,980 Climbing Salt Lake Center
05:49PM 43.1814 -109.5600 118° Southeast 376 433 32,200 1,980 Climbing Salt Lake Center
05:50PM 43.1356 -109.4458 119° Southeast 362 417 34,100 1,740 Climbing Salt Lake Center
05:51PM 43.0808 -109.3081 119° Southeast 368 423 35,800 1,560 Climbing Salt Lake Center
05:52PM 43.0336 -109.1886 118° Southeast 372 428 37,400 1,560 Climbing Salt Lake Center
05:53PM 42.9781 -109.0492 119° Southeast 374 430 39,000 720 Climbing Salt Lake Center
05:54PM 42.9319 -108.9336 119° Southeast 377 434 39,000  Level Salt Lake Center
05:55PM 42.8731 -108.7886 119° Southeast 387 445 39,000  Level Salt Lake Center
05:56PM 42.8228 -108.6631 119° Southeast 392 451 39,000  Level Salt Lake Center
05:57PM 42.7647 -108.5208 119° Southeast 385 443 39,000  Level Salt Lake Center
05:58PM 42.7156 -108.3994 119° Southeast 384 442 39,000  Level Salt Lake Center
05:59PM 42.6669 -108.2797 119° Southeast 380 437 39,000  Level Salt Lake Center
06:00PM 42.6089 -108.1394 119° Southeast 380 437 39,000  Level Salt Lake Center
06:01PM 42.5603 -108.0206 119° Southeast 377 434 39,000  Level Salt Lake Center
06:02PM 42.5050 -107.8808 118° Southeast 377 434 39,000  Level Salt Lake Center
06:03PM 42.4556 -107.7586 119° Southeast 384 442 39,000  Level Salt Lake Center
06:04PM 42.4078 -107.6394 118° Southeast 382 440 39,000  Level Salt Lake Center
06:05PM 42.3531 -107.5039 119° Southeast 373 429 39,000  Level Denver Center
06:06PM 42.3033 -107.3842 119° Southeast 378 435 39,000  Level Denver Center
06:07PM 42.2567 -107.2678 118° Southeast 373 429 39,000  Level Denver Center
06:08PM 42.2006 -107.1314 119° Southeast 372 428 39,000  Level Denver Center
06:09PM 42.1531 -107.0150 119° Southeast 371 427 39,000 -120 Level Denver Center
06:10PM 42.0878 -106.8594 119° Southeast 373 429 38,800 -600 Descending Denver Center
06:11PM 42.0289 -106.7189 119° Southeast 384 442 37,700 -1,020 Descending Denver Center
06:13PM 41.9781 -106.5989 120° Southeast 387 445 36,800 -960 Descending Denver Center
06:14PM 41.9275 -106.4806 120° Southeast 383 441 35,800 -1,020 Descending Denver Center
06:15PM 41.8731 -106.3492 119° Southeast 368 423 34,700 -1,020 Descending Denver Center
06:16PM 41.8261 -106.2394 120° Southeast 360 414 33,700 -1,020 Descending Denver Center
06:17PM 41.7717 -106.1125 120° Southeast 355 409 32,600 -1,020 Descending Denver Center
06:18PM 41.7264 -106.0044 119° Southeast 351 404 31,700 -1,260 Descending Denver Center
06:19PM 41.6725 -105.8808 120° Southeast 348 400 30,100 -1,500 Descending Denver Center
06:20PM 41.6278 -105.7761 120° Southeast 343 395 28,700 -1,620 Descending Denver Center
06:21PM 41.5775 -105.6603 120° Southeast 333 383 26,800 -1,740 Descending Denver Center
06:22PM 41.5342 -105.5592 120° Southeast 329 379 25,200 -1,380 Descending Denver Center
06:23PM 41.4811 -105.4394 121° Southeast 334 384 24,000 -1,020 Descending Denver Center
06:24PM 41.4392 -105.3408 120° Southeast 324 373 23,100 -1,500 Descending Denver Center
06:25PM 41.3997 -105.2192 113° Southeast 322 371 20,900 -2,040 Descending Denver Center
06:26PM 41.3681 -105.1175 113° Southeast 317 365 18,900 -2,100 Descending Denver Center
06:27PM 41.3156 -105.0181 125° Southeast 306 352 16,600 -2,160 Descending Denver Center
06:28PM 41.2711 -104.9317 124° Southeast 300 345 14,500 -2,340 Descending Denver Center
06:29PM 41.2236 -104.8361 123° Southeast 289 333 11,800 -2,160 Descending Denver Center
06:30PM 41.2092 -104.7603 104° East 245 282 10,000 -1,800 Descending Denver Center
06:32PM 41.1500 -104.8000 120° Southeast  Level FlightAware Approximate
06:39PM 41.1556 -104.8105 120° Southeast  Level Estimated
06:40PM 41.1556 -104.8105 120° Southeast  Level Estimated